Time;durP1;ratioP1;P1;durP2;ratioP2;P2;SDS_P1;SDS_P2;PMS_P1;PMS_P2;Temp;Humidity;BMP_temperature;BMP_pressure;BME280_temperature;BME280_humidity;BME280_pressure;Samples;Min_cycle;Max_cycle;Signal;HPM_P1;HPM_P2
2023/06/18 00:02:00;;;;;;;0.38;0.30;;;17.90;99.90;;;;;;5145413;27;20457;-66
2023/06/18 00:04:26;;;;;;;1.23;1.20;;;17.90;99.90;;;;;;5145472;27;20050;-66
2023/06/18 00:06:55;;;;;;;2.35;0.45;;;17.90;99.90;;;;;;5146211;27;20529;-66
2023/06/18 00:09:21;;;;;;;0.28;0.28;;;17.90;99.90;;;;;;5143626;27;20039;-66
2023/06/18 00:11:48;;;;;;;2.70;0.90;;;18.00;99.90;;;;;;5142830;27;20447;-67
2023/06/18 00:14:13;;;;;;;0.88;0.88;;;17.90;99.90;;;;;;5144576;27;20071;-67
2023/06/18 00:16:39;;;;;;;4.47;1.33;;;17.80;99.90;;;;;;5124580;27;20574;-66
2023/06/18 00:19:04;;;;;;;1.10;1.00;;;17.70;99.90;;;;;;5128003;27;20046;-67
2023/06/18 00:21:30;;;;;;;6.50;1.40;;;17.70;99.90;;;;;;5141716;27;20030;-66
2023/06/18 00:23:57;;;;;;;0.95;0.88;;;17.70;99.90;;;;;;5127649;27;20398;-67
2023/06/18 00:26:25;;;;;;;3.35;2.05;;;17.70;99.90;;;;;;5142101;27;20050;-67
2023/06/18 00:28:51;;;;;;;2.03;1.92;;;17.70;99.90;;;;;;5142777;27;20058;-66
2023/06/18 00:31:17;;;;;;;0.93;0.90;;;17.70;99.90;;;;;;5123840;27;20044;-66
2023/06/18 00:33:43;;;;;;;1.15;1.10;;;17.70;99.90;;;;;;5125920;27;20047;-66
2023/06/18 00:36:09;;;;;;;0.68;0.68;;;17.70;99.90;;;;;;5147536;27;20049;-67
2023/06/18 00:38:36;;;;;;;7.40;1.30;;;17.60;99.90;;;;;;5142929;27;20039;-67
2023/06/18 00:41:02;;;;;;;2.05;0.80;;;17.60;99.90;;;;;;5139242;27;20045;-66
2023/06/18 00:43:27;;;;;;;1.17;1.08;;;17.50;99.90;;;;;;5127466;27;20043;-66
2023/06/18 00:45:59;;;;;;;1.33;1.23;;;17.60;99.90;;;;;;5142711;27;20043;-67
2023/06/18 00:48:25;;;;;;;2.97;2.08;;;17.60;99.90;;;;;;5140525;27;20039;-66
2023/06/18 00:50:53;;;;;;;0.43;0.43;;;17.60;99.90;;;;;;5144230;27;20051;-66
2023/06/18 00:53:20;;;;;;;0.35;0.35;;;17.60;99.90;;;;;;5144072;27;20046;-66
2023/06/18 00:55:47;;;;;;;0.80;0.57;;;17.50;99.90;;;;;;5144036;27;20043;-66
2023/06/18 00:58:13;;;;;;;6.82;1.40;;;17.50;99.90;;;;;;5148533;27;20043;-67
2023/06/18 01:00:40;;;;;;;1.00;1.00;;;17.50;99.90;;;;;;5140885;27;20047;-66
2023/06/18 01:03:16;;;;;;;1.13;1.02;;;17.50;99.90;;;;;;5143508;27;20039;-66
2023/06/18 01:05:47;;;;;;;5.78;0.95;;;17.50;99.90;;;;;;5143122;27;20039;-66
2023/06/18 01:08:14;;;;;;;1.23;1.13;;;17.40;99.90;;;;;;5141269;27;20091;-66
2023/06/18 01:10:40;;;;;;;0.75;0.75;;;17.40;99.90;;;;;;5145511;27;20485;-67
2023/06/18 01:13:14;;;;;;;6.53;0.75;;;17.40;99.90;;;;;;5142441;27;20039;-66
2023/06/18 01:15:40;;;;;;;1.77;1.65;;;17.30;99.90;;;;;;5125511;27;20042;-66
2023/06/18 01:18:08;;;;;;;1.05;0.95;;;17.30;99.90;;;;;;5145445;27;20043;-67
2023/06/18 01:20:41;;;;;;;1.17;1.15;;;17.30;99.90;;;;;;5142154;27;20035;-66
2023/06/18 01:23:21;;;;;;;;;;;17.30;99.90;;;;;;5143804;27;20047;-67
2023/06/18 01:25:47;;;;;;;0.93;0.93;;;17.20;99.90;;;;;;5141675;27;19919;-67
2023/06/18 01:28:14;;;;;;;0.47;0.47;;;17.30;99.90;;;;;;5144593;27;20062;-66
2023/06/18 01:30:40;;;;;;;3.35;2.00;;;17.20;99.90;;;;;;5140315;27;20138;-66
2023/06/18 01:33:12;;;;;;;0.47;0.45;;;17.10;99.90;;;;;;5141449;27;20039;-66
2023/06/18 01:35:38;;;;;;;1.48;0.98;;;17.10;99.90;;;;;;5143186;27;20383;-67
2023/06/18 01:38:28;;;;;;;3.15;1.63;;;17.00;99.90;;;;;;5146102;27;20054;-66
2023/06/18 01:41:08;;;;;;;1.38;1.27;;;17.10;99.90;;;;;;5141506;27;20038;-66
2023/06/18 01:43:51;;;;;;;1.67;0.70;;;17.00;99.90;;;;;;5124687;27;20055;-67
2023/06/18 01:46:23;;;;;;;3.97;1.92;;;17.00;99.90;;;;;;5144694;27;20047;-66
2023/06/18 01:49:04;;;;;;;0.20;0.20;;;17.00;99.90;;;;;;5141715;27;20042;-66
2023/06/18 01:51:32;;;;;;;2.58;1.08;;;17.00;99.90;;;;;;5152664;27;20047;-66
2023/06/18 01:54:00;;;;;;;3.38;1.70;;;17.00;99.90;;;;;;5141998;27;20035;-66
2023/06/18 01:56:28;;;;;;;0.82;0.77;;;17.00;99.90;;;;;;5140974;27;20038;-66
2023/06/18 01:58:55;;;;;;;1.67;1.58;;;17.00;99.90;;;;;;5140140;27;20093;-66
2023/06/18 02:01:21;;;;;;;1.02;0.90;;;16.90;99.90;;;;;;5126297;27;20059;-66
2023/06/18 02:03:47;;;;;;;1.90;1.75;;;16.90;99.90;;;;;;5141993;27;20031;-66
2023/06/18 02:06:13;;;;;;;0.85;0.85;;;16.90;99.90;;;;;;5139322;27;20088;-66
2023/06/18 02:08:39;;;;;;;0.98;0.88;;;17.00;99.90;;;;;;5143228;27;20043;-66
2023/06/18 02:11:05;;;;;;;1.33;1.23;;;17.00;99.90;;;;;;5122520;27;20070;-66
2023/06/18 02:13:30;;;;;;;2.70;2.10;;;16.90;99.90;;;;;;5143799;27;20066;-67
2023/06/18 02:15:56;;;;;;;1.65;0.95;;;16.90;99.90;;;;;;5141551;27;20032;-67
2023/06/18 02:18:21;;;;;;;0.38;0.38;;;16.90;99.90;;;;;;5149264;27;20046;-66
2023/06/18 02:20:47;;;;;;;2.17;0.43;;;16.90;99.90;;;;;;5147081;27;20038;-66
2023/06/18 02:23:13;;;;;;;2.17;1.02;;;16.80;99.90;;;;;;5141701;27;20047;-66
2023/06/18 02:25:39;;;;;;;1.48;1.38;;;16.90;99.90;;;;;;5131012;27;20516;-66
2023/06/18 02:28:06;;;;;;;0.98;0.98;;;16.80;99.90;;;;;;5148964;27;20038;-66
2023/06/18 02:30:33;;;;;;;0.63;0.55;;;16.80;99.90;;;;;;5112697;27;20074;-66
2023/06/18 02:33:06;;;;;;;0.35;0.35;;;16.80;99.90;;;;;;5103076;28;20059;-67
2023/06/18 02:35:32;;;;;;;0.82;0.82;;;16.80;99.90;;;;;;5103497;28;20040;-66
2023/06/18 02:37:58;;;;;;;1.15;1.15;;;16.70;99.90;;;;;;5108370;28;20039;-66
2023/06/18 02:40:23;;;;;;;0.32;0.32;;;16.70;99.90;;;;;;5103049;28;20044;-67
2023/06/18 02:42:50;;;;;;;0.50;0.50;;;16.70;99.90;;;;;;5106581;28;20031;-67
2023/06/18 02:45:20;;;;;;;0.45;0.45;;;16.70;99.90;;;;;;5107155;28;20079;-67
2023/06/18 02:47:46;;;;;;;1.30;0.95;;;16.80;99.90;;;;;;5103459;28;20101;-67
2023/06/18 02:50:13;;;;;;;5.15;1.95;;;16.70;99.90;;;;;;5104321;28;20039;-66
2023/06/18 02:52:39;;;;;;;2.20;0.63;;;16.80;99.90;;;;;;5103357;28;20083;-66
2023/06/18 02:55:06;;;;;;;3.72;2.95;;;16.80;99.90;;;;;;5101096;28;20036;-67
2023/06/18 02:57:32;;;;;;;0.90;0.90;;;16.70;99.90;;;;;;5107042;28;20047;-66
2023/06/18 02:59:58;;;;;;;1.02;1.00;;;16.70;99.90;;;;;;5104294;28;20395;-67
2023/06/18 03:02:23;;;;;;;1.02;1.02;;;16.70;99.90;;;;;;5106896;28;20039;-67
2023/06/18 03:04:49;;;;;;;1.65;1.55;;;16.70;99.90;;;;;;5100116;28;20140;-67
2023/06/18 03:07:14;;;;;;;2.17;1.75;;;16.70;99.90;;;;;;5108154;28;20047;-66
2023/06/18 03:09:40;;;;;;;1.17;1.13;;;16.80;99.90;;;;;;5103151;28;20040;-66
2023/06/18 03:12:06;;;;;;;0.55;0.52;;;16.80;99.90;;;;;;5107636;28;20120;-67
2023/06/18 03:14:31;;;;;;;0.75;0.75;;;16.80;99.90;;;;;;5104322;28;20089;-66
2023/06/18 03:16:57;;;;;;;1.05;0.95;;;16.80;99.90;;;;;;5106203;28;20040;-66
2023/06/18 03:19:23;;;;;;;0.73;0.73;;;16.80;99.90;;;;;;5104907;28;20041;-66
2023/06/18 03:21:48;;;;;;;5.38;2.22;;;16.80;99.90;;;;;;5100511;28;20056;-67
2023/06/18 03:24:14;;;;;;;0.45;0.45;;;16.80;99.90;;;;;;5107820;28;20043;-66
2023/06/18 03:26:41;;;;;;;1.38;1.27;;;16.70;99.90;;;;;;5102795;28;20384;-66
2023/06/18 03:29:07;;;;;;;1.45;1.35;;;16.80;99.90;;;;;;5101786;28;20039;-66
2023/06/18 03:31:34;;;;;;;0.88;0.88;;;16.80;99.90;;;;;;5150620;27;20055;-67
2023/06/18 03:34:01;;;;;;;0.88;0.68;;;16.80;99.90;;;;;;5147859;27;20074;-66
2023/06/18 03:36:28;;;;;;;2.05;0.52;;;16.80;99.90;;;;;;5142537;27;20047;-67
2023/06/18 03:38:54;;;;;;;1.15;1.08;;;16.80;99.90;;;;;;5143797;27;20051;-66
2023/06/18 03:41:20;;;;;;;7.60;2.35;;;16.80;99.90;;;;;;5140656;27;20095;-67
2023/06/18 03:43:46;;;;;;;1.33;1.23;;;16.80;99.90;;;;;;5143461;27;20039;-67
2023/06/18 03:46:11;;;;;;;2.47;1.70;;;16.80;99.90;;;;;;5125112;27;20095;-66
2023/06/18 03:48:38;;;;;;;0.73;0.73;;;16.80;99.90;;;;;;5150510;27;20050;-67
2023/06/18 03:51:04;;;;;;;0.30;0.30;;;16.90;99.90;;;;;;5150075;27;20031;-67
2023/06/18 03:53:30;;;;;;;0.43;0.43;;;16.90;99.90;;;;;;5142684;27;20095;-66
2023/06/18 03:55:56;;;;;;;4.57;1.95;;;16.90;99.90;;;;;;5147856;27;20042;-67
2023/06/18 03:58:21;;;;;;;1.67;0.90;;;16.90;99.90;;;;;;5145749;27;20125;-66
2023/06/18 04:00:47;;;;;;;1.95;0.73;;;16.90;99.90;;;;;;5143261;27;20040;-66
2023/06/18 04:03:13;;;;;;;6.15;1.75;;;16.90;99.90;;;;;;5142497;27;20070;-66
2023/06/18 04:05:38;;;;;;;1.25;1.15;;;16.90;99.90;;;;;;5143708;27;20049;-67
2023/06/18 04:08:04;;;;;;;1.80;1.35;;;16.90;99.90;;;;;;5143574;27;20118;-67
2023/06/18 04:10:30;;;;;;;1.55;0.82;;;17.00;99.90;;;;;;5127125;27;20049;-67
2023/06/18 04:12:56;;;;;;;1.58;0.70;;;17.00;99.90;;;;;;5144684;27;20457;-66
2023/06/18 04:15:21;;;;;;;4.35;2.22;;;17.10;99.90;;;;;;5146645;27;20443;-66
2023/06/18 04:17:47;;;;;;;0.68;0.68;;;17.10;99.90;;;;;;5146095;27;20114;-67
2023/06/18 04:20:13;;;;;;;3.45;1.05;;;17.20;99.90;;;;;;5143569;27;20042;-67
2023/06/18 04:22:38;;;;;;;0.63;0.63;;;17.20;99.90;;;;;;5143506;27;20046;-66
2023/06/18 04:25:05;;;;;;;2.75;1.45;;;17.20;99.90;;;;;;5145526;27;20027;-67
2023/06/18 04:27:31;;;;;;;1.30;0.60;;;17.20;99.90;;;;;;5144327;27;20431;-66
2023/06/18 04:29:56;;;;;;;1.38;1.30;;;17.30;99.90;;;;;;5151461;27;20043;-66
2023/06/18 04:32:22;;;;;;;1.05;1.05;;;17.30;99.90;;;;;;5143306;27;20058;-67
2023/06/18 04:34:48;;;;;;;2.65;2.45;;;17.30;99.90;;;;;;5143289;27;20042;-67
2023/06/18 04:37:13;;;;;;;0.20;0.20;;;17.30;99.90;;;;;;5124155;27;20113;-66
2023/06/18 04:39:39;;;;;;;4.22;0.52;;;17.40;99.90;;;;;;5144035;27;20066;-67
2023/06/18 04:42:05;;;;;;;1.05;0.95;;;17.40;99.90;;;;;;5142778;27;20077;-67
2023/06/18 04:44:30;;;;;;;1.58;1.48;;;17.50;99.90;;;;;;5141945;27;20039;-66
2023/06/18 04:46:56;;;;;;;0.63;0.63;;;17.50;99.90;;;;;;5143163;27;20042;-66
2023/06/18 04:49:21;;;;;;;0.85;0.85;;;17.50;99.90;;;;;;5143268;27;20501;-66
2023/06/18 04:51:47;;;;;;;1.13;1.05;;;17.40;99.90;;;;;;5143267;27;20043;-66
2023/06/18 04:54:12;;;;;;;9.40;0.57;;;17.50;99.90;;;;;;5143087;27;20055;-66
2023/06/18 04:56:38;;;;;;;0.55;0.55;;;17.60;99.90;;;;;;5137892;27;20031;-66
2023/06/18 04:59:03;;;;;;;2.25;1.48;;;17.50;99.90;;;;;;5144575;27;20076;-66
2023/06/18 05:01:29;;;;;;;1.35;0.82;;;17.50;99.90;;;;;;5144813;27;20158;-67
2023/06/18 05:03:55;;;;;;;0.50;0.50;;;17.50;99.90;;;;;;5143340;27;20034;-66
2023/06/18 05:06:20;;;;;;;2.83;0.80;;;17.40;99.90;;;;;;5145326;27;20051;-67
2023/06/18 05:08:46;;;;;;;1.13;1.02;;;17.40;99.90;;;;;;5144560;27;20045;-67
2023/06/18 05:11:12;;;;;;;3.95;1.58;;;17.40;99.90;;;;;;5142920;27;20039;-67
2023/06/18 05:13:38;;;;;;;0.55;0.55;;;17.30;99.90;;;;;;5142775;27;20041;-67
2023/06/18 05:16:04;;;;;;;0.68;0.68;;;17.30;99.90;;;;;;5143421;27;20035;-67
2023/06/18 05:18:30;;;;;;;0.65;0.65;;;17.40;99.90;;;;;;5144792;27;20123;-66
2023/06/18 05:20:56;;;;;;;0.35;0.35;;;17.40;99.90;;;;;;5139872;27;20035;-67
2023/06/18 05:23:21;;;;;;;0.68;0.68;;;17.50;99.90;;;;;;5149400;27;20394;-67
2023/06/18 05:25:47;;;;;;;0.82;0.73;;;17.40;99.90;;;;;;5146626;27;20046;-67
2023/06/18 05:28:13;;;;;;;1.05;0.82;;;17.40;99.90;;;;;;5143521;27;20053;-67
2023/06/18 05:30:38;;;;;;;1.25;1.15;;;17.40;99.90;;;;;;5140425;27;20611;-66
2023/06/18 05:33:04;;;;;;;1.50;1.17;;;17.40;99.90;;;;;;5146489;27;20057;-66
2023/06/18 05:35:30;;;;;;;0.73;0.73;;;17.50;99.90;;;;;;5142917;27;20047;-67
2023/06/18 05:37:55;;;;;;;1.98;1.25;;;17.50;99.90;;;;;;5143442;27;20043;-66
2023/06/18 05:40:21;;;;;;;0.75;0.70;;;17.50;99.90;;;;;;5139181;27;20076;-67
2023/06/18 05:42:47;;;;;;;0.63;0.63;;;17.50;99.90;;;;;;5143633;27;20035;-67
2023/06/18 05:45:12;;;;;;;4.93;1.90;;;17.60;99.90;;;;;;5143094;27;20153;-67
2023/06/18 05:47:38;;;;;;;2.00;0.85;;;17.70;99.90;;;;;;5126065;27;20047;-67
2023/06/18 05:50:04;;;;;;;0.20;0.20;;;17.60;99.90;;;;;;5144410;27;20038;-67
2023/06/18 05:52:30;;;;;;;1.10;1.00;;;17.80;99.90;;;;;;5144647;27;20078;-66
2023/06/18 05:54:55;;;;;;;5.38;1.27;;;17.80;99.90;;;;;;5122178;27;20066;-67
2023/06/18 05:57:21;;;;;;;0.30;0.30;;;17.90;99.90;;;;;;5144321;27;20042;-67
2023/06/18 05:59:48;;;;;;;0.50;0.50;;;17.90;99.90;;;;;;5125447;27;20046;-66
2023/06/18 06:02:13;;;;;;;0.70;0.70;;;17.90;99.90;;;;;;5143341;27;20474;-67
2023/06/18 06:04:39;;;;;;;0.30;0.30;;;17.90;99.90;;;;;;5148637;27;20038;-66
2023/06/18 06:07:05;;;;;;;0.30;0.30;;;17.90;99.90;;;;;;5147265;27;20042;-67
2023/06/18 06:09:30;;;;;;;0.63;0.63;;;17.90;99.90;;;;;;5141806;27;20035;-67
2023/06/18 06:11:56;;;;;;;1.27;1.08;;;17.90;99.90;;;;;;5149564;27;20034;-67
2023/06/18 06:14:22;;;;;;;1.75;1.13;;;17.80;99.90;;;;;;5125442;27;20553;-67
2023/06/18 06:16:48;;;;;;;0.73;0.70;;;17.90;99.90;;;;;;5143503;27;20042;-67
2023/06/18 06:19:13;;;;;;;0.65;0.65;;;18.00;99.90;;;;;;5147427;27;20099;-67
2023/06/18 06:21:39;;;;;;;1.15;0.40;;;18.00;99.90;;;;;;5145166;27;20078;-66
2023/06/18 06:24:06;;;;;;;1.77;0.77;;;18.10;99.90;;;;;;5145038;27;20042;-66
2023/06/18 06:26:31;;;;;;;1.25;0.75;;;18.20;99.90;;;;;;5147930;27;20054;-67
2023/06/18 06:28:57;;;;;;;0.20;0.20;;;18.30;99.90;;;;;;5146659;27;20035;-67
2023/06/18 06:31:23;;;;;;;0.40;0.40;;;18.40;99.90;;;;;;5144175;27;20063;-67
2023/06/18 06:33:50;;;;;;;0.47;0.47;;;18.50;99.90;;;;;;5144658;27;20047;-67
2023/06/18 06:36:15;;;;;;;11.40;1.85;;;18.70;99.90;;;;;;5143133;27;20394;-66
2023/06/18 06:38:41;;;;;;;0.52;0.47;;;18.70;99.90;;;;;;5146578;27;20129;-67
2023/06/18 06:41:07;;;;;;;0.20;0.20;;;18.80;99.90;;;;;;5148631;27;20088;-66
2023/06/18 06:43:32;;;;;;;1.85;1.08;;;18.80;99.90;;;;;;5144628;27;20034;-66
2023/06/18 06:45:58;;;;;;;0.88;0.85;;;18.80;99.90;;;;;;5146545;27;20389;-66
2023/06/18 06:48:23;;;;;;;0.75;0.75;;;18.90;99.90;;;;;;5148116;27;20141;-67
2023/06/18 06:50:49;;;;;;;0.40;0.40;;;19.00;99.90;;;;;;5145813;27;20051;-67
2023/06/18 06:53:14;;;;;;;10.18;0.75;;;19.10;99.90;;;;;;5144307;27;20435;-67
2023/06/18 06:55:40;;;;;;;0.65;0.65;;;19.10;99.90;;;;;;5149415;27;20050;-67
2023/06/18 06:58:05;;;;;;;5.45;1.20;;;19.30;99.90;;;;;;5145846;27;20081;-67
2023/06/18 07:00:31;;;;;;;0.57;0.43;;;19.40;99.90;;;;;;5145444;27;20043;-67
2023/06/18 07:02:56;;;;;;;0.77;0.77;;;19.50;99.90;;;;;;5145472;27;20078;-66
2023/06/18 07:05:22;;;;;;;1.02;0.93;;;19.50;99.90;;;;;;5150178;27;20039;-67
2023/06/18 07:07:48;;;;;;;0.20;0.20;;;19.60;99.90;;;;;;5146117;27;20042;-66
2023/06/18 07:10:13;;;;;;;3.30;0.60;;;19.60;99.90;;;;;;5144930;27;20054;-67
2023/06/18 07:12:39;;;;;;;1.08;0.85;;;19.60;99.90;;;;;;5140715;27;20039;-66
2023/06/18 07:15:05;;;;;;;0.75;0.60;;;19.70;99.90;;;;;;5131004;27;20417;-66
2023/06/18 07:17:31;;;;;;;2.20;1.30;;;19.80;99.90;;;;;;5144047;27;20043;-67
2023/06/18 07:19:56;;;;;;;0.20;0.20;;;19.80;99.90;;;;;;5143180;27;20156;-66
2023/06/18 07:22:22;;;;;;;0.35;0.20;;;19.80;99.90;;;;;;5147736;27;20394;-66
2023/06/18 07:24:47;;;;;;;0.17;0.13;;;19.90;99.90;;;;;;5141852;27;20091;-66
2023/06/18 07:27:14;;;;;;;0.30;0.30;;;20.00;99.90;;;;;;5149734;27;20046;-67
2023/06/18 07:29:40;;;;;;;0.00;0.00;;;20.20;99.90;;;;;;5139776;27;20061;-67
2023/06/18 07:32:06;;;;;;;0.63;0.63;;;20.20;99.90;;;;;;5146896;27;20118;-67
2023/06/18 07:34:31;;;;;;;0.30;0.30;;;20.40;99.90;;;;;;5144389;27;20047;-67
2023/06/18 07:36:57;;;;;;;1.08;0.70;;;20.40;99.90;;;;;;5142865;27;20508;-67
2023/06/18 07:39:22;;;;;;;1.50;0.40;;;20.60;99.90;;;;;;5147047;27;20035;-67
2023/06/18 07:41:49;;;;;;;0.00;0.00;;;20.70;99.90;;;;;;5142433;27;20125;-66
2023/06/18 07:44:15;;;;;;;0.10;0.10;;;20.80;99.90;;;;;;5148930;27;20057;-66
2023/06/18 07:46:42;;;;;;;0.05;0.05;;;21.00;99.90;;;;;;5145477;27;20477;-67
2023/06/18 07:49:08;;;;;;;0.13;0.13;;;21.00;99.90;;;;;;5143032;27;20031;-67
2023/06/18 07:51:34;;;;;;;0.60;0.60;;;21.00;99.90;;;;;;5144710;27;20104;-67
2023/06/18 07:54:00;;;;;;;1.45;0.88;;;21.10;99.90;;;;;;5146518;27;20088;-67
2023/06/18 07:56:26;;;;;;;0.32;0.32;;;21.20;99.90;;;;;;5144502;27;20034;-66
2023/06/18 07:58:52;;;;;;;0.52;0.52;;;21.30;99.90;;;;;;5146763;27;20050;-66
2023/06/18 08:01:18;;;;;;;0.45;0.45;;;21.30;99.90;;;;;;5151764;27;20026;-67
2023/06/18 08:03:44;;;;;;;0.55;0.55;;;21.40;99.90;;;;;;5146127;27;20092;-67
2023/06/18 08:06:10;;;;;;;4.20;1.15;;;21.50;99.90;;;;;;5151476;27;20042;-66
2023/06/18 08:08:35;;;;;;;0.38;0.38;;;21.60;99.90;;;;;;5148060;27;20038;-66
2023/06/18 08:11:01;;;;;;;0.25;0.25;;;21.80;99.90;;;;;;5144928;27;20481;-67
2023/06/18 08:13:26;;;;;;;0.47;0.47;;;21.90;99.90;;;;;;5143119;27;20058;-67
2023/06/18 08:15:52;;;;;;;0.20;0.20;;;21.90;99.90;;;;;;5150459;27;20046;-67
2023/06/18 08:18:18;;;;;;;0.65;0.65;;;22.00;99.90;;;;;;5142772;27;20039;-67
2023/06/18 08:20:43;;;;;;;0.68;0.40;;;22.10;99.90;;;;;;5139511;27;20394;-67
2023/06/18 08:23:09;;;;;;;0.73;0.73;;;22.10;99.90;;;;;;5142910;27;20039;-67
2023/06/18 08:25:35;;;;;;;0.35;0.35;;;22.20;99.90;;;;;;5150867;27;20056;-67
2023/06/18 08:28:01;;;;;;;0.65;0.65;;;22.20;99.90;;;;;;5146394;27;20470;-66
2023/06/18 08:30:27;;;;;;;0.22;0.22;;;22.30;99.90;;;;;;5143306;27;20142;-66
2023/06/18 08:32:56;;;;;;;0.80;0.57;;;22.50;99.90;;;;;;5145443;27;20039;-67
2023/06/18 08:35:22;;;;;;;0.45;0.45;;;22.70;99.90;;;;;;5145444;27;20047;-67
2023/06/18 08:37:48;;;;;;;0.22;0.22;;;22.90;99.90;;;;;;5145329;27;20121;-66
2023/06/18 08:40:14;;;;;;;0.30;0.30;;;23.00;99.90;;;;;;5127809;27;20101;-67
2023/06/18 08:42:40;;;;;;;0.80;0.55;;;23.10;99.90;;;;;;5139421;27;20490;-67
2023/06/18 08:45:07;;;;;;;0.35;0.35;;;23.30;99.90;;;;;;5145122;27;20051;-66
2023/06/18 08:47:33;;;;;;;0.30;0.30;;;23.30;99.90;;;;;;5124604;27;20093;-67
2023/06/18 08:49:59;;;;;;;1.48;1.38;;;23.40;99.90;;;;;;5140994;27;20502;-67
2023/06/18 08:52:29;;;;;;;0.52;0.52;;;23.40;99.90;;;;;;5134683;27;20091;-67
2023/06/18 08:55:01;;;;;;;0.75;0.60;;;23.40;99.90;;;;;;5146085;27;20034;-67
2023/06/18 08:57:41;;;;;;;0.68;0.57;;;23.50;99.90;;;;;;5149301;27;20051;-66
2023/06/18 09:00:08;;;;;;;2.40;1.65;;;23.50;99.90;;;;;;5125135;27;20050;-67
2023/06/18 09:02:34;;;;;;;0.68;0.68;;;23.60;99.90;;;;;;5144295;27;20525;-66
2023/06/18 09:05:02;;;;;;;0.63;0.50;;;23.80;99.90;;;;;;5138027;27;20035;-67
2023/06/18 09:07:28;;;;;;;0.60;0.60;;;23.90;99.90;;;;;;5143463;27;20043;-67
2023/06/18 09:09:55;;;;;;;0.43;0.43;;;24.00;99.90;;;;;;5142351;27;20043;-67
2023/06/18 09:12:20;;;;;;;1.35;1.25;;;24.00;99.90;;;;;;5145477;27;20047;-67
2023/06/18 09:14:46;;;;;;;2.08;1.05;;;24.00;99.90;;;;;;5139052;27;20027;-67
2023/06/18 09:17:12;;;;;;;0.17;0.17;;;24.10;99.90;;;;;;5142753;27;20168;-67
2023/06/18 09:19:37;;;;;;;0.93;0.70;;;24.30;99.90;;;;;;5142576;27;20061;-67
2023/06/18 09:22:18;;;;;;;0.00;0.00;;;24.30;99.90;;;;;;5141694;27;20039;-66
2023/06/18 09:24:43;;;;;;;0.43;0.32;;;24.50;99.90;;;;;;5123374;27;20077;-67
2023/06/18 09:27:09;;;;;;;1.63;0.73;;;24.70;99.90;;;;;;5148722;27;20110;-67
2023/06/18 09:29:37;;;;;;;0.88;0.88;;;24.80;99.90;;;;;;5141679;27;20043;-67
2023/06/18 09:32:11;;;;;;;0.40;0.40;;;24.90;99.90;;;;;;5146207;27;20130;-67
2023/06/18 09:34:38;;;;;;;0.20;0.20;;;25.10;99.90;;;;;;5143126;27;20042;-67
2023/06/18 09:37:05;;;;;;;1.85;0.40;;;25.00;99.90;;;;;;5123172;27;20569;-67
2023/06/18 09:39:33;;;;;;;0.30;0.22;;;25.10;99.90;;;;;;5141651;27;20039;-67
2023/06/18 09:42:06;;;;;;;0.50;0.50;;;25.10;99.90;;;;;;5123251;27;20051;-67
2023/06/18 09:44:32;;;;;;;;;;;25.10;99.90;;;;;;5152949;27;20117;-67
2023/06/18 09:46:58;;;;;;;1.20;1.10;;;25.10;99.90;;;;;;5141288;27;20007;-67
2023/06/18 09:49:25;;;;;;;0.00;0.00;;;25.10;99.90;;;;;;5146462;27;20039;-67
2023/06/18 09:51:52;;;;;;;0.30;0.30;;;25.10;99.90;;;;;;5118071;27;20043;-67
2023/06/18 09:54:18;;;;;;;0.45;0.45;;;25.10;99.90;;;;;;5143648;27;20068;-67
2023/06/18 09:57:02;;;;;;;0.28;0.28;;;25.00;99.90;;;;;;5141549;27;20035;-67
2023/06/18 09:59:28;;;;;;;0.38;0.38;;;25.00;99.90;;;;;;5148845;27;20050;-67
2023/06/18 10:01:57;;;;;;;0.22;0.22;;;25.00;99.90;;;;;;5143416;27;20039;-67
2023/06/18 10:04:25;;;;;;;3.28;0.98;;;25.00;99.90;;;;;;5144565;27;20053;-66
2023/06/18 10:06:53;;;;;;;0.00;0.00;;;25.10;99.90;;;;;;5121482;27;20039;-67
2023/06/18 10:09:23;;;;;;;0.00;0.00;;;25.00;99.90;;;;;;5136876;27;20042;-67
2023/06/18 10:11:50;;;;;;;0.40;0.40;;;25.00;99.90;;;;;;5122476;27;20046;-67
2023/06/18 10:14:21;;;;;;;0.30;0.30;;;25.00;99.90;;;;;;5145705;27;20562;-67
2023/06/18 10:16:50;;;;;;;0.47;0.45;;;25.10;99.90;;;;;;5143971;27;20046;-67
2023/06/18 10:19:29;;;;;;;1.88;1.02;;;25.10;99.90;;;;;;5123942;27;20042;-67
2023/06/18 10:22:05;;;;;;;0.68;0.68;;;25.10;99.90;;;;;;5124099;27;20053;-67
2023/06/18 10:24:46;;;;;;;0.20;0.20;;;25.20;99.90;;;;;;5139893;27;20051;-67
2023/06/18 10:27:12;;;;;;;0.15;0.15;;;25.30;99.90;;;;;;5144170;27;20478;-67
2023/06/18 10:29:38;;;;;;;7.32;2.00;;;25.40;99.90;;;;;;5140362;27;20105;-67
2023/06/18 10:32:05;;;;;;;0.52;0.47;;;25.40;99.90;;;;;;5127375;27;20486;-67
2023/06/18 10:34:32;;;;;;;0.05;0.05;;;25.50;99.90;;;;;;5123467;27;20049;-67
2023/06/18 10:36:59;;;;;;;0.80;0.30;;;25.60;99.90;;;;;;5142643;27;20053;-67
2023/06/18 10:39:25;;;;;;;0.35;0.30;;;25.70;99.90;;;;;;5145323;27;20620;-67
2023/06/18 10:41:54;;;;;;;2.22;1.83;;;25.60;99.90;;;;;;5147825;27;20041;-67
2023/06/18 10:44:34;;;;;;;0.57;0.55;;;25.60;99.90;;;;;;5140033;27;20557;-67
2023/06/18 10:47:21;;;;;;;0.20;0.20;;;25.70;99.90;;;;;;5142162;27;20038;-67
2023/06/18 10:50:02;;;;;;;0.60;0.60;;;25.90;99.90;;;;;;5146405;27;20099;-67
2023/06/18 10:52:39;;;;;;;0.70;0.70;;;26.10;99.90;;;;;;5145548;27;20047;-66
2023/06/18 10:55:26;;;;;;;0.38;0.30;;;26.40;99.90;;;;;;5132794;27;20390;-66
2023/06/18 10:58:03;;;;;;;0.38;0.38;;;26.60;99.90;;;;;;5127358;27;20058;-66
2023/06/18 11:00:38;;;;;;;0.77;0.77;;;26.80;99.90;;;;;;5146345;27;20145;-66
2023/06/18 11:03:06;;;;;;;1.10;0.40;;;26.80;99.90;;;;;;5144357;27;20406;-66
2023/06/18 11:05:31;;;;;;;0.10;0.10;;;26.70;99.90;;;;;;5146717;27;20093;-67
2023/06/18 11:08:08;;;;;;;0.40;0.40;;;26.60;99.90;;;;;;5145347;27;20078;-67
2023/06/18 11:10:42;;;;;;;0.70;0.70;;;26.70;99.90;;;;;;5142506;27;20052;-66
2023/06/18 11:13:09;;;;;;;0.32;0.20;;;26.70;99.90;;;;;;5144963;27;20042;-67
2023/06/18 11:15:42;;;;;;;0.22;0.22;;;26.80;99.90;;;;;;5133202;27;20046;-66
2023/06/18 11:18:09;;;;;;;0.38;0.38;;;27.00;99.90;;;;;;5151408;27;20038;-66
2023/06/18 11:20:38;;;;;;;0.28;0.10;;;27.10;99.90;;;;;;5146585;27;20534;-66
2023/06/18 11:23:04;;;;;;;3.10;0.32;;;27.30;99.90;;;;;;5147506;27;20070;-66
2023/06/18 11:25:30;;;;;;;1.50;1.40;;;27.30;99.90;;;;;;5138761;27;20509;-66
2023/06/18 11:28:00;;;;;;;0.00;0.00;;;27.60;99.90;;;;;;5145682;27;20093;-67
2023/06/18 11:30:26;;;;;;;0.13;0.13;;;27.70;99.90;;;;;;5151286;27;20106;-66
2023/06/18 11:32:51;;;;;;;0.00;0.00;;;27.80;99.90;;;;;;5149405;27;20043;-67
2023/06/18 11:35:17;;;;;;;0.45;0.30;;;27.70;99.90;;;;;;5124842;27;20054;-67
2023/06/18 11:37:44;;;;;;;0.57;0.45;;;27.70;99.10;;;;;;5145496;27;20038;-67
2023/06/18 11:40:10;;;;;;;1.85;0.88;;;27.70;99.00;;;;;;5147842;27;20064;-67
2023/06/18 11:42:47;;;;;;;0.20;0.20;;;27.70;98.90;;;;;;5144417;27;20043;-67
2023/06/18 11:45:13;;;;;;;0.13;0.10;;;27.90;99.30;;;;;;5145147;27;20125;-67
2023/06/18 11:47:47;;;;;;;0.57;0.43;;;28.10;98.70;;;;;;5144037;27;20817;-67
2023/06/18 11:50:14;;;;;;;0.30;0.10;;;28.10;97.60;;;;;;5147256;27;20038;-67
2023/06/18 11:52:40;;;;;;;0.55;0.55;;;28.30;99.20;;;;;;5145304;27;20053;-67
2023/06/18 11:55:06;;;;;;;0.57;0.50;;;28.30;98.30;;;;;;5123322;27;20039;-67
2023/06/18 11:57:32;;;;;;;0.68;0.63;;;28.60;98.40;;;;;;5144394;27;20047;-67
2023/06/18 11:59:59;;;;;;;0.10;0.10;;;28.80;97.40;;;;;;5147439;27;20098;-67
2023/06/18 12:02:26;;;;;;;0.40;0.22;;;29.00;97.20;;;;;;5143094;27;20447;-67
2023/06/18 12:04:57;;;;;;;3.83;0.93;;;29.10;96.20;;;;;;5151341;27;20038;-67
2023/06/18 12:07:24;;;;;;;0.08;0.03;;;29.20;96.90;;;;;;5131464;27;20080;-67
2023/06/18 12:09:52;;;;;;;0.73;0.20;;;29.30;96.10;;;;;;5142943;27;20511;-67
2023/06/18 12:12:48;;;;;;;6.13;0.65;;;29.40;96.20;;;;;;5143187;27;20067;-67
2023/06/18 12:15:25;;;;;;;3.00;1.00;;;29.40;95.60;;;;;;5143812;27;20488;-67
2023/06/18 12:18:05;;;;;;;1.35;0.45;;;29.40;95.40;;;;;;5128009;27;20500;-67
2023/06/18 12:20:31;;;;;;;1.90;0.98;;;29.40;95.50;;;;;;5143071;27;20470;-67
2023/06/18 12:22:59;;;;;;;0.43;0.25;;;29.40;94.80;;;;;;5142453;27;20031;-67
2023/06/18 12:25:30;;;;;;;0.40;0.40;;;29.50;95.70;;;;;;5152150;27;20076;-67
2023/06/18 12:27:58;;;;;;;0.47;0.47;;;29.60;96.00;;;;;;5145866;27;20039;-67
2023/06/18 12:30:32;;;;;;;0.08;0.08;;;29.70;96.60;;;;;;5124523;27;20413;-67
2023/06/18 12:33:06;;;;;;;1.65;0.65;;;29.70;95.90;;;;;;5146050;27;20110;-67
2023/06/18 12:35:34;;;;;;;0.20;0.20;;;29.50;94.40;;;;;;5139355;27;20047;-67
2023/06/18 12:38:06;;;;;;;0.17;0.17;;;29.70;95.30;;;;;;5144540;27;20042;-67
2023/06/18 12:40:33;;;;;;;0.22;0.22;;;29.40;94.70;;;;;;5143892;27;20103;-67
2023/06/18 12:43:00;;;;;;;0.40;0.40;;;29.30;95.50;;;;;;5143499;27;20401;-67
2023/06/18 12:45:32;;;;;;;2.55;0.45;;;29.30;95.50;;;;;;5137485;27;20043;-67
2023/06/18 12:48:08;;;;;;;0.25;0.25;;;29.00;95.10;;;;;;5145989;27;20039;-67
2023/06/18 12:50:34;;;;;;;0.05;0.05;;;28.90;95.10;;;;;;5141906;27;20031;-67